Time;durP1;ratioP1;P1;durP2;ratioP2;P2;SDS_P1;SDS_P2;PMS_P1;PMS_P2;Temp;Humidity;BMP_temperature;BMP_pressure;BME280_temperature;BME280_humidity;BME280_pressure;Samples;Min_cycle;Max_cycle;Signal;HPM_P1;HPM_P2
2021/04/07 00:00:36;;;;;;;4.50;2.17;;;1.80;99.90;;;;;;5014721;28;20182;-59
2021/04/07 00:03:03;;;;;;;4.72;1.45;;;1.80;99.90;;;;;;5014498;28;20183;-59
2021/04/07 00:05:33;;;;;;;12.63;1.63;;;1.60;99.90;;;;;;5014691;28;20182;-59
2021/04/07 00:07:59;;;;;;;8.57;2.90;;;1.60;99.90;;;;;;5014617;28;20182;-59
2021/04/07 00:10:30;;;;;;;8.30;2.72;;;1.40;99.90;;;;;;5016477;28;20171;-65
2021/04/07 00:12:57;;;;;;;5.32;2.03;;;1.50;99.90;;;;;;5020597;28;20182;-65
2021/04/07 00:15:24;;;;;;;12.82;2.75;;;1.40;99.90;;;;;;5020564;28;20210;-65
2021/04/07 00:17:51;;;;;;;10.07;2.70;;;1.60;99.90;;;;;;5016113;28;20636;-63
2021/04/07 00:20:20;;;;;;;6.95;2.15;;;1.50;99.90;;;;;;5014241;28;20258;-63
2021/04/07 00:22:46;;;;;;;7.13;2.10;;;1.50;99.90;;;;;;5014205;28;20667;-62
2021/04/07 00:25:12;;;;;;;7.10;1.80;;;1.50;99.90;;;;;;5013954;28;20278;-59
2021/04/07 00:27:40;;;;;;;7.00;1.85;;;1.50;99.90;;;;;;5014172;28;20586;-59
2021/04/07 00:30:07;;;;;;;7.00;1.80;;;1.40;99.90;;;;;;5014181;28;20494;-59
2021/04/07 00:32:32;;;;;;;6.32;2.00;;;1.30;99.90;;;;;;5014018;28;20227;-59
2021/04/07 00:34:58;;;;;;;4.00;1.87;;;1.30;99.90;;;;;;5013922;28;20179;-59
2021/04/07 00:37:24;;;;;;;5.30;1.30;;;1.40;99.90;;;;;;5014054;28;20178;-59
2021/04/07 00:39:49;;;;;;;11.10;1.80;;;1.50;99.90;;;;;;5014275;28;20525;-59
2021/04/07 00:42:15;;;;;;;9.80;2.33;;;1.50;99.90;;;;;;5014432;28;20179;-63
2021/04/07 00:44:41;;;;;;;9.23;1.77;;;1.50;99.90;;;;;;5014190;28;20193;-62
2021/04/07 00:47:06;;;;;;;6.17;1.60;;;1.50;99.90;;;;;;5014155;28;20175;-63
2021/04/07 00:49:32;;;;;;;6.53;1.40;;;1.60;99.90;;;;;;5014075;28;20183;-62
2021/04/07 00:51:58;;;;;;;8.50;2.10;;;1.60;99.90;;;;;;5014009;28;21020;-62
2021/04/07 00:54:23;;;;;;;3.93;1.57;;;1.70;99.90;;;;;;5013594;28;20171;-62
2021/04/07 00:56:50;;;;;;;13.37;1.67;;;1.60;99.90;;;;;;5013829;28;20519;-61
2021/04/07 00:59:17;;;;;;;6.05;1.65;;;1.50;99.90;;;;;;5013758;28;20687;-61
2021/04/07 01:01:43;;;;;;;2.28;1.10;;;1.40;99.90;;;;;;5014099;28;20662;-61
2021/04/07 01:04:11;;;;;;;13.63;2.55;;;1.30;99.90;;;;;;5013732;28;20533;-60
2021/04/07 01:06:40;;;;;;;9.10;2.55;;;1.30;99.90;;;;;;5013136;28;20189;-60
2021/04/07 01:09:06;;;;;;;10.43;2.30;;;1.30;99.90;;;;;;5013994;28;20221;-58
2021/04/07 01:11:31;;;;;;;6.93;2.43;;;1.30;99.90;;;;;;5017786;28;20234;-62
2021/04/07 01:13:57;;;;;;;7.03;1.97;;;1.20;99.90;;;;;;5016627;28;20425;-60
2021/04/07 01:16:23;;;;;;;3.13;1.40;;;1.20;99.90;;;;;;5017681;28;20695;-58
2021/04/07 01:18:49;;;;;;;10.43;1.70;;;1.10;99.90;;;;;;5017705;28;20171;-58
2021/04/07 01:21:15;;;;;;;6.82;1.52;;;1.10;99.90;;;;;;5017015;28;20491;-64
2021/04/07 01:23:45;;;;;;;4.80;1.80;;;1.10;99.90;;;;;;5022580;28;20223;-58
2021/04/07 01:26:11;;;;;;;7.65;1.80;;;1.10;99.90;;;;;;5017524;28;20265;-58
2021/04/07 01:28:37;;;;;;;7.85;1.77;;;1.10;99.90;;;;;;5017545;28;20183;-58
2021/04/07 01:31:02;;;;;;;9.13;2.70;;;1.20;99.90;;;;;;5017477;28;20240;-58
2021/04/07 01:33:28;;;;;;;8.73;2.70;;;1.20;99.90;;;;;;5018202;28;20428;-64
2021/04/07 01:35:54;;;;;;;16.13;1.80;;;1.30;99.90;;;;;;5023221;28;20179;-64
2021/04/07 01:38:20;;;;;;;5.93;1.95;;;1.20;99.90;;;;;;5022532;28;20191;-64
2021/04/07 01:40:47;;;;;;;6.95;2.00;;;1.20;99.90;;;;;;5022595;28;20182;-64
2021/04/07 01:43:17;;;;;;;9.43;1.73;;;1.20;99.90;;;;;;5019936;28;20838;-58
2021/04/07 01:45:45;;;;;;;10.20;2.10;;;1.10;99.90;;;;;;5018025;28;20679;-58
2021/04/07 01:48:16;;;;;;;9.25;2.08;;;1.10;99.90;;;;;;5017475;28;20316;-58
2021/04/07 01:50:43;;;;;;;3.30;2.17;;;1.10;99.90;;;;;;5017083;28;20175;-58
2021/04/07 01:53:11;;;;;;;12.45;2.50;;;1.10;99.90;;;;;;5017003;28;20493;-58
2021/04/07 01:55:37;;;;;;;9.63;2.00;;;1.00;99.90;;;;;;5016149;28;20189;-58
2021/04/07 01:58:03;;;;;;;2.47;1.63;;;1.00;99.90;;;;;;5018913;28;20179;-62
2021/04/07 02:00:28;;;;;;;2.80;1.07;;;1.00;99.90;;;;;;5017024;28;20192;-62
2021/04/07 02:02:54;;;;;;;8.97;2.03;;;0.90;99.90;;;;;;5016910;28;20491;-62
2021/04/07 02:05:20;;;;;;;5.87;1.60;;;1.00;99.90;;;;;;5016810;28;20188;-58
2021/04/07 02:07:46;;;;;;;3.60;1.40;;;1.00;99.90;;;;;;5016832;28;20906;-62
2021/04/07 02:10:12;;;;;;;6.87;2.07;;;0.90;99.90;;;;;;5016843;28;20262;-58
2021/04/07 02:12:38;;;;;;;9.32;3.15;;;0.90;99.90;;;;;;5016844;28;20218;-63
2021/04/07 02:15:13;;;;;;;13.80;2.53;;;0.90;99.90;;;;;;5016880;28;20185;-59
2021/04/07 02:17:38;;;;;;;6.35;2.08;;;0.90;99.90;;;;;;5016677;28;20441;-61
2021/04/07 02:20:05;;;;;;;4.80;2.07;;;0.90;99.90;;;;;;5017009;28;20636;-62
2021/04/07 02:22:31;;;;;;;3.30;1.65;;;0.90;99.90;;;;;;5019537;28;20185;-65
2021/04/07 02:24:56;;;;;;;7.00;1.37;;;1.00;99.90;;;;;;5020830;28;20258;-59
2021/04/07 02:27:24;;;;;;;5.40;1.50;;;1.00;99.90;;;;;;5017412;28;20273;-63
2021/04/07 02:29:52;;;;;;;2.80;1.30;;;1.00;99.90;;;;;;5016868;28;20250;-62
2021/04/07 02:32:19;;;;;;;2.78;1.60;;;1.00;99.90;;;;;;5016601;28;20293;-62
2021/04/07 02:34:45;;;;;;;7.03;1.23;;;0.90;99.90;;;;;;5016908;28;20185;-64
2021/04/07 02:37:12;;;;;;;8.75;2.17;;;0.90;99.90;;;;;;5020032;28;20179;-65
2021/04/07 02:39:38;;;;;;;4.70;1.80;;;1.00;99.90;;;;;;5020331;28;20635;-65
2021/04/07 02:42:04;;;;;;;5.40;2.37;;;1.00;99.90;;;;;;5022066;28;20187;-65
2021/04/07 02:44:29;;;;;;;3.03;1.83;;;1.00;99.90;;;;;;5020892;28;20182;-64
2021/04/07 02:46:55;;;;;;;4.27;1.67;;;1.00;99.90;;;;;;5018651;28;20564;-63
2021/04/07 02:49:20;;;;;;;7.77;2.03;;;1.10;99.90;;;;;;5019091;28;20179;-63
2021/04/07 02:51:46;;;;;;;6.53;1.50;;;1.20;99.90;;;;;;5020142;28;20238;-63
2021/04/07 02:54:12;;;;;;;8.13;1.80;;;1.20;99.90;;;;;;5020693;28;20197;-63
2021/04/07 02:56:38;;;;;;;4.87;1.70;;;1.20;99.90;;;;;;5020427;28;20634;-63
2021/04/07 02:59:04;;;;;;;5.10;2.40;;;1.20;99.90;;;;;;5018520;28;20469;-63
2021/04/07 03:01:29;;;;;;;3.75;1.98;;;1.10;99.90;;;;;;5017550;28;20674;-62
2021/04/07 03:03:55;;;;;;;10.50;2.70;;;1.10;99.90;;;;;;5015732;28;20198;-63
2021/04/07 03:06:21;;;;;;;5.13;1.60;;;1.10;99.90;;;;;;5017664;28;20580;-63
2021/04/07 03:08:47;;;;;;;7.73;2.10;;;1.10;99.90;;;;;;5018749;28;20186;-63
2021/04/07 03:11:13;;;;;;;4.80;1.52;;;1.00;99.90;;;;;;5015963;28;20203;-63
2021/04/07 03:13:38;;;;;;;10.10;2.77;;;1.10;99.90;;;;;;5014529;28;20630;-63
2021/04/07 03:16:04;;;;;;;5.87;2.03;;;1.10;99.90;;;;;;5015520;28;20562;-63
2021/04/07 03:18:29;;;;;;;7.27;2.10;;;1.00;99.90;;;;;;5015442;28;20609;-63
2021/04/07 03:20:55;;;;;;;5.60;1.60;;;1.00;99.90;;;;;;5015001;28;20193;-63
2021/04/07 03:23:21;;;;;;;7.70;2.13;;;1.00;99.90;;;;;;5015008;28;20209;-63
2021/04/07 03:25:46;;;;;;;4.20;1.60;;;0.90;99.90;;;;;;5015229;28;20187;-63
2021/04/07 03:28:12;;;;;;;4.40;1.23;;;0.80;99.90;;;;;;5015562;28;20329;-63
2021/04/07 03:30:52;;;;;;;3.27;1.30;;;0.80;99.90;;;;;;5015002;28;20515;-63
2021/04/07 03:33:24;;;;;;;7.75;1.77;;;0.70;99.90;;;;;;5014401;28;20186;-62
2021/04/07 03:35:51;;;;;;;5.00;1.48;;;0.70;99.90;;;;;;5014873;28;20187;-62
2021/04/07 03:38:17;;;;;;;4.97;1.40;;;0.70;99.90;;;;;;5014641;28;20221;-63
2021/04/07 03:40:44;;;;;;;7.35;1.75;;;0.70;99.90;;;;;;5015125;28;20627;-59
2021/04/07 03:43:11;;;;;;;4.82;2.15;;;0.60;99.90;;;;;;5014519;28;20201;-59
2021/04/07 03:45:44;;;;;;;8.02;1.85;;;0.60;99.90;;;;;;5015006;28;20187;-59
2021/04/07 03:48:11;;;;;;;9.88;3.00;;;0.60;99.90;;;;;;5014806;28;20269;-59
2021/04/07 03:50:38;;;;;;;10.93;3.40;;;0.50;99.90;;;;;;5014635;28;20183;-59
2021/04/07 03:53:04;;;;;;;8.68;3.47;;;0.60;99.90;;;;;;5013665;28;20580;-59
2021/04/07 03:55:30;;;;;;;5.57;2.17;;;0.60;99.90;;;;;;5014526;28;20516;-59
2021/04/07 03:57:55;;;;;;;4.70;3.20;;;0.60;99.90;;;;;;5014501;28;20183;-59
2021/04/07 04:00:21;;;;;;;4.73;2.97;;;0.60;99.90;;;;;;5014595;28;20190;-59
2021/04/07 04:02:47;;;;;;;12.50;3.50;;;0.60;99.90;;;;;;5014481;28;20182;-59
2021/04/07 04:05:13;;;;;;;9.13;3.90;;;0.60;99.90;;;;;;5014258;28;20489;-59
2021/04/07 04:07:38;;;;;;;7.13;3.63;;;0.50;99.90;;;;;;5014463;28;20182;-59
2021/04/07 04:10:05;;;;;;;7.50;3.67;;;0.50;99.90;;;;;;5014478;28;20193;-61
2021/04/07 04:12:30;;;;;;;5.75;3.10;;;0.50;99.90;;;;;;5014215;28;20202;-61
2021/04/07 04:14:56;;;;;;;5.83;3.73;;;0.50;99.90;;;;;;5014271;28;20228;-61
2021/04/07 04:17:22;;;;;;;7.83;4.23;;;0.60;99.90;;;;;;5014296;28;20231;-61
2021/04/07 04:19:49;;;;;;;8.80;3.67;;;0.60;99.90;;;;;;5014174;28;20620;-61
2021/04/07 04:22:15;;;;;;;15.13;4.72;;;0.70;99.90;;;;;;5014207;28;20189;-61
2021/04/07 04:24:42;;;;;;;7.43;3.20;;;0.70;99.90;;;;;;5013907;28;20604;-61
2021/04/07 04:27:08;;;;;;;8.07;3.80;;;0.80;99.90;;;;;;5014028;28;20194;-61
2021/04/07 04:29:34;;;;;;;8.57;4.20;;;0.70;99.90;;;;;;5014145;28;20666;-61
2021/04/07 04:32:00;;;;;;;10.65;4.05;;;0.80;99.90;;;;;;5013839;28;20465;-61
2021/04/07 04:34:25;;;;;;;8.87;3.90;;;0.80;99.90;;;;;;5013947;28;20264;-61
2021/04/07 04:36:51;;;;;;;6.17;3.60;;;0.80;99.90;;;;;;5013986;28;20434;-61
2021/04/07 04:39:17;;;;;;;12.67;3.90;;;0.80;99.90;;;;;;5014027;28;20190;-61
2021/04/07 04:41:43;;;;;;;8.57;3.55;;;0.70;99.90;;;;;;5015866;28;20252;-64
2021/04/07 04:44:08;;;;;;;7.50;3.17;;;0.60;99.90;;;;;;5016971;28;20620;-64
2021/04/07 04:46:35;;;;;;;8.20;3.85;;;0.60;99.90;;;;;;5018954;28;20214;-64
2021/04/07 04:49:00;;;;;;;7.93;2.43;;;0.50;99.90;;;;;;5018580;28;20278;-64
2021/04/07 04:51:26;;;;;;;5.73;2.90;;;0.60;99.90;;;;;;5018597;28;20559;-64
2021/04/07 04:53:51;;;;;;;8.50;2.37;;;0.50;99.90;;;;;;5018782;28;20265;-64
2021/04/07 04:56:17;;;;;;;6.50;2.63;;;0.50;99.90;;;;;;5019899;28;20186;-64
2021/04/07 04:58:42;;;;;;;10.50;3.43;;;0.60;99.90;;;;;;5018738;28;20591;-64
2021/04/07 05:01:09;;;;;;;6.07;3.03;;;0.50;99.90;;;;;;5018608;28;20274;-64
2021/04/07 05:03:35;;;;;;;4.97;2.35;;;0.50;99.90;;;;;;5018334;28;20523;-64
2021/04/07 05:06:01;;;;;;;9.50;3.30;;;0.60;99.90;;;;;;5012806;28;20182;-58
2021/04/07 05:08:26;;;;;;;6.90;2.80;;;0.70;99.90;;;;;;5013623;28;20308;-59
2021/04/07 05:10:52;;;;;;;5.17;2.17;;;0.80;99.90;;;;;;5013466;28;20210;-58
2021/04/07 05:13:17;;;;;;;5.33;2.37;;;0.90;99.90;;;;;;5013535;28;20170;-59
2021/04/07 05:15:43;;;;;;;4.33;1.77;;;0.90;99.90;;;;;;5013531;28;20189;-59
2021/04/07 05:18:17;;;;;;;4.50;1.90;;;1.00;99.90;;;;;;5013614;28;20275;-59
2021/04/07 05:20:42;;;;;;;3.10;1.67;;;1.00;99.90;;;;;;5013713;28;20174;-59
2021/04/07 05:23:09;;;;;;;13.57;2.40;;;1.20;99.90;;;;;;5013287;28;20181;-59
2021/04/07 05:25:36;;;;;;;5.95;1.73;;;1.30;99.90;;;;;;5013441;28;20179;-59
2021/04/07 05:28:06;;;;;;;7.22;2.08;;;1.40;99.90;;;;;;5013449;28;20214;-59
2021/04/07 05:33:30;;;;;;;8.15;2.15;;;2.50;59.00;;;;;;5013512;28;20683;-59
2021/04/07 05:35:58;;;;;;;2.22;1.65;;;2.70;1.00;;;;;;5013668;28;20627;-59
2021/04/07 05:38:24;;;;;;;6.22;2.00;;;2.90;1.00;;;;;;5013329;28;20198;-59
2021/04/07 05:40:54;;;;;;;8.00;2.58;;;2.80;99.90;;;;;;5013498;28;20182;-59
2021/04/07 05:43:22;;;;;;;7.50;3.33;;;3.00;1.00;;;;;;5013140;28;20179;-58
2021/04/07 05:45:48;;;;;;;4.13;2.05;;;3.10;99.90;;;;;;5013171;28;20182;-59
2021/04/07 05:48:14;;;;;;;4.35;2.90;;;3.50;99.90;;;;;;5015608;28;20274;-68
2021/04/07 05:50:48;;;;;;;12.43;1.60;;;3.90;99.90;;;;;;5018565;28;20198;-65
2021/04/07 05:53:14;;;;;;;8.43;1.88;;;3.90;1.00;;;;;;5018330;28;20606;-65
2021/04/07 05:55:48;;;;;;;5.00;1.87;;;3.30;99.90;;;;;;5016603;28;20185;-65
2021/04/07 05:58:14;;;;;;;6.05;2.83;;;3.30;1.00;;;;;;5017397;28;20898;-59
2021/04/07 06:00:41;;;;;;;7.70;2.17;;;3.40;1.00;;;;;;5016672;28;20265;-63
2021/04/07 06:03:08;;;;;;;4.32;2.05;;;3.50;1.00;;;;;;5016191;28;20527;-63
2021/04/07 06:05:38;;;;;;;4.50;2.17;;;4.00;1.00;;;;;;5015639;28;20183;-60
2021/04/07 06:08:04;;;;;;;4.63;2.38;;;4.20;1.00;;;;;;5016747;28;20263;-63
2021/04/07 06:10:30;;;;;;;8.98;2.60;;;4.10;1.00;;;;;;5016584;28;20595;-63
2021/04/07 06:13:00;;;;;;;3.33;2.95;;;4.10;47.60;;;;;;5016326;28;20298;-63
2021/04/07 06:15:27;;;;;;;7.32;2.40;;;4.40;48.40;;;;;;5016169;28;20188;-63
2021/04/07 06:17:58;;;;;;;7.47;2.58;;;5.10;99.90;;;;;;5016233;28;20182;-63
2021/04/07 06:20:25;;;;;;;6.93;3.50;;;5.10;1.00;;;;;;5016427;28;20480;-63
2021/04/07 06:22:51;;;;;;;4.25;2.60;;;5.50;33.40;;;;;;5016177;28;20186;-63
2021/04/07 06:25:19;;;;;;;5.85;3.10;;;6.00;1.00;;;;;;5015927;28;20187;-63
2021/04/07 06:27:50;;;;;;;5.07;3.05;;;5.50;1.00;;;;;;5016027;28;20237;-63
2021/04/07 06:30:17;;;;;;;4.63;2.97;;;5.30;99.90;;;;;;5015985;28;20192;-63
2021/04/07 06:32:43;;;;;;;2.47;2.28;;;5.60;1.00;;;;;;5015762;28;20213;-63
2021/04/07 06:35:09;;;;;;;6.13;2.77;;;5.40;1.00;;;;;;5015795;28;20535;-59
2021/04/07 06:37:34;;;;;;;6.10;3.60;;;5.10;99.90;;;;;;5015880;28;20775;-59
2021/04/07 06:40:00;;;;;;;4.80;3.03;;;4.80;1.00;;;;;;5015896;28;20445;-60
2021/04/07 06:42:26;;;;;;;9.57;3.63;;;4.00;1.00;;;;;;5014890;28;20263;-60
2021/04/07 06:44:51;;;;;;;5.73;3.73;;;3.50;99.90;;;;;;5015987;28;20193;-60
2021/04/07 06:47:18;;;;;;;7.70;3.80;;;3.50;99.90;;;;;;5015823;28;20182;-60
2021/04/07 06:49:45;;;;;;;8.82;4.30;;;3.50;1.00;;;;;;5015976;28;20175;-60
2021/04/07 06:52:16;;;;;;;6.85;3.83;;;3.90;1.00;;;;;;5015579;28;20657;-60
2021/04/07 06:54:45;;;;;;;6.50;3.78;;;3.50;19.30;;;;;;5015826;28;20248;-59
2021/04/07 06:57:10;;;;;;;4.38;3.97;;;3.40;99.90;;;;;;5019898;28;20556;-67
2021/04/07 06:59:37;;;;;;;5.20;3.93;;;2.90;1.00;;;;;;5024562;28;20618;-65
2021/04/07 07:02:03;;;;;;;10.23;4.53;;;2.90;99.90;;;;;;5016805;28;20179;-65
2021/04/07 07:04:29;;;;;;;7.50;3.65;;;2.80;99.90;;;;;;5015151;28;20183;-66
2021/04/07 07:06:56;;;;;;;3.50;2.87;;;2.80;1.00;;;;;;5038139;28;20186;-67
2021/04/07 07:09:21;;;;;;;5.38;3.08;;;2.50;1.00;;;;;;5020465;28;20188;-69
2021/04/07 07:11:49;;;;;;;5.53;3.33;;;2.70;1.00;;;;;;5027758;28;20222;-65
2021/04/07 07:14:16;;;;;;;12.80;3.17;;;2.70;1.00;;;;;;5007473;28;20186;-61
2021/04/07 07:16:46;;;;;;;5.93;2.40;;;2.70;1.00;;;;;;5021019;28;20178;-64
2021/04/07 07:19:29;;;;;;;4.55;2.97;;;2.70;1.00;;;;;;5027858;28;20175;-62
2021/04/07 07:21:57;;;;;;;5.43;3.08;;;2.70;1.00;;;;;;5020455;28;20265;-66
2021/04/07 07:24:34;;;;;;;2.42;2.00;;;2.70;1.00;;;;;;5026848;28;20594;-66
2021/04/07 07:27:05;;;;;;;3.25;2.65;;;2.80;1.00;;;;;;5035548;28;20179;-66
2021/04/07 07:29:33;;;;;;;5.65;2.72;;;2.80;1.00;;;;;;5035511;28;20197;-67
2021/04/07 07:32:03;;;;;;;3.60;1.98;;;2.90;1.00;;;;;;5019502;28;20321;-67
2021/04/07 07:34:30;;;;;;;4.32;2.25;;;2.80;1.00;;;;;;5015360;28;20186;-64
2021/04/07 07:36:56;;;;;;;3.83;2.50;;;3.00;1.00;;;;;;5030782;28;20282;-66
2021/04/07 07:39:24;;;;;;;7.43;2.33;;;3.00;1.00;;;;;;5015328;28;20702;-67
2021/04/07 07:41:51;;;;;;;5.05;2.53;;;3.50;1.00;;;;;;5030615;28;20194;-60
2021/04/07 07:44:17;;;;;;;3.72;1.98;;;3.40;1.00;;;;;;5014839;28;20182;-60
2021/04/07 07:46:45;;;;;;;3.83;2.50;;;3.50;1.00;;;;;;5030792;28;20180;-60
2021/04/07 07:49:16;;;;;;;7.55;3.22;;;3.60;1.00;;;;;;5015367;28;20296;-59
2021/04/07 07:51:49;;;;;;;5.82;2.50;;;3.80;1.00;;;;;;5016935;28;20280;-61
2021/04/07 07:54:17;;;;;;;5.78;2.72;;;3.70;1.00;;;;;;5015560;28;20174;-61
2021/04/07 07:56:42;;;;;;;2.97;2.75;;;3.60;1.00;;;;;;5014871;28;20194;-65
2021/04/07 07:59:08;;;;;;;5.77;2.50;;;3.70;1.00;;;;;;5015125;28;20171;-66
2021/04/07 08:01:44;;;;;;;4.80;2.63;;;3.70;1.00;;;;;;5014857;28;20179;-66
2021/04/07 08:04:10;;;;;;;6.03;2.55;;;3.70;1.00;;;;;;5014747;28;20182;-65
2021/04/07 08:06:36;;;;;;;3.33;2.33;;;3.30;1.00;;;;;;5014675;28;20557;-58
2021/04/07 08:09:05;;;;;;;3.40;2.50;;;3.20;1.00;;;;;;5014821;28;20209;-67
2021/04/07 08:11:31;;;;;;;2.83;2.15;;;3.40;1.00;;;;;;5014693;28;20298;-68
2021/04/07 08:13:59;;;;;;;2.63;2.33;;;3.50;1.00;;;;;;5014640;28;20189;-61
2021/04/07 08:16:27;;;;;;;3.28;2.30;;;3.70;1.00;;;;;;5014881;28;20190;-61
2021/04/07 08:18:53;;;;;;;3.83;3.22;;;3.60;1.00;;;;;;5014576;28;20253;-63
2021/04/07 08:21:21;;;;;;;5.38;3.47;;;3.90;1.00;;;;;;5014685;28;20187;-66
2021/04/07 08:23:53;;;;;;;5.93;3.65;;;3.70;1.00;;;;;;5014222;28;20190;-66
2021/04/07 08:26:22;;;;;;;4.20;2.83;;;3.70;1.00;;;;;;5014899;28;20198;-65
2021/04/07 08:28:49;;;;;;;7.25;3.00;;;3.80;1.00;;;;;;5014578;28;20251;-66
2021/04/07 08:31:17;;;;;;;8.55;3.97;;;3.90;1.00;;;;;;5014650;28;20535;-61
2021/04/07 08:33:51;;;;;;;8.75;4.43;;;4.10;1.00;;;;;;5014460;28;20186;-65
2021/04/07 08:36:18;;;;;;;7.53;5.30;;;4.30;1.00;;;;;;5014567;28;20203;-64
2021/04/07 08:38:44;;;;;;;5.10;4.07;;;4.30;1.00;;;;;;5014515;28;20200;-64
2021/04/07 08:41:18;;;;;;;7.50;4.30;;;4.40;1.00;;;;;;5014083;28;20824;-64
2021/04/07 08:43:44;;;;;;;6.75;4.07;;;4.10;1.00;;;;;;5013011;28;20437;-64
2021/04/07 08:46:15;;;;;;;9.48;4.70;;;4.00;1.00;;;;;;5014304;28;20249;-66
2021/04/07 08:48:42;;;;;;;8.52;4.68;;;4.10;1.00;;;;;;5014252;28;20183;-67
2021/04/07 08:51:12;;;;;;;7.50;4.10;;;4.20;1.00;;;;;;5014305;28;20186;-58
2021/04/07 08:53:41;;;;;;;9.05;3.95;;;4.30;1.00;;;;;;5014229;28;20262;-58
2021/04/07 08:56:10;;;;;;;7.93;3.50;;;4.30;1.00;;;;;;5014408;28;20184;-63
2021/04/07 08:58:55;;;;;;;3.85;3.55;;;4.20;1.00;;;;;;5014128;28;20176;-64
2021/04/07 09:01:25;;;;;;;5.35;3.70;;;4.30;1.00;;;;;;5013325;28;20189;-61
2021/04/07 09:04:13;;;;;;;5.22;3.78;;;4.10;1.00;;;;;;5014576;28;20686;-61
2021/04/07 09:06:59;;;;;;;3.55;2.45;;;4.00;1.00;;;;;;5014356;28;20186;-61
2021/04/07 09:09:25;;;;;;;5.88;3.10;;;3.80;1.00;;;;;;5012621;28;20202;-63
2021/04/07 09:11:54;;;;;;;8.10;3.22;;;3.80;1.00;;;;;;5014329;28;20207;-64
2021/04/07 09:14:21;;;;;;;4.57;2.95;;;3.90;1.00;;;;;;5013875;28;20233;-65
2021/04/07 09:16:47;;;;;;;3.25;2.95;;;4.20;1.00;;;;;;5014143;28;20211;-62
2021/04/07 09:19:23;;;;;;;3.20;2.90;;;4.30;1.00;;;;;;5014225;28;20636;-62
2021/04/07 09:22:05;;;;;;;7.65;3.45;;;4.40;1.00;;;;;;5014119;28;20509;-61
2021/04/07 09:24:44;;;;;;;9.98;3.30;;;4.50;1.00;;;;;;5013764;28;20199;-62
2021/04/07 09:27:24;;;;;;;7.07;2.75;;;4.50;1.00;;;;;;5014013;28;20191;-63
2021/04/07 09:29:50;;;;;;;3.88;3.10;;;4.70;1.00;;;;;;5014072;28;20275;-62
2021/04/07 09:32:17;;;;;;;3.40;2.70;;;4.70;99.90;;;;;;5016966;28;20296;-62
2021/04/07 09:34:44;;;;;;;3.47;2.78;;;5.00;99.90;;;;;;5017383;28;20647;-62
2021/04/07 09:37:10;;;;;;;2.58;1.90;;;5.00;99.90;;;;;;5017454;28;20608;-61
2021/04/07 09:39:40;;;;;;;3.38;3.00;;;5.40;99.90;;;;;;5017148;28;20203;-59
2021/04/07 09:42:07;;;;;;;3.53;2.35;;;5.90;1.00;;;;;;5017300;28;20177;-63
2021/04/07 09:44:33;;;;;;;2.40;2.13;;;6.40;99.90;;;;;;5017210;28;20193;-63
2021/04/07 09:46:59;;;;;;;2.93;2.10;;;6.20;1.00;;;;;;5017150;28;20183;-63
2021/04/07 09:49:29;;;;;;;2.35;2.15;;;6.20;99.90;;;;;;5017268;28;20515;-63
2021/04/07 09:51:55;;;;;;;2.55;2.33;;;6.10;1.00;;;;;;5017016;28;20704;-63
2021/04/07 09:54:24;;;;;;;2.80;2.00;;;6.20;1.00;;;;;;5013945;28;20618;-63
2021/04/07 09:56:58;;;;;;;2.05;1.85;;;6.10;1.00;;;;;;5016663;28;20631;-63
2021/04/07 09:59:31;;;;;;;2.15;1.95;;;6.10;99.90;;;;;;5010032;28;20262;-62
2021/04/07 10:01:57;;;;;;;2.92;2.15;;;5.70;99.90;;;;;;5016993;28;20189;-62
2021/04/07 10:04:27;;;;;;;2.45;2.22;;;5.60;1.00;;;;;;5016747;28;20277;-62
2021/04/07 10:06:53;;;;;;;3.03;2.28;;;5.80;1.00;;;;;;5032276;28;20673;-63
2021/04/07 10:09:27;;;;;;;3.73;1.80;;;5.80;1.00;;;;;;5017103;28;20189;-63
2021/04/07 10:11:53;;;;;;;2.35;2.15;;;5.90;1.00;;;;;;5017082;28;20261;-62
2021/04/07 10:14:19;;;;;;;2.50;2.20;;;5.90;1.00;;;;;;5016889;28;20263;-63
2021/04/07 10:16:44;;;;;;;1.90;1.63;;;6.00;1.00;;;;;;5017177;28;20491;-62
2021/04/07 10:19:11;;;;;;;2.23;1.77;;;5.90;1.00;;;;;;5013940;28;20469;-62
2021/04/07 10:21:38;;;;;;;7.50;3.53;;;5.90;1.00;;;;;;5014712;28;20243;-63
2021/04/07 10:24:05;;;;;;;2.10;1.90;;;6.00;1.00;;;;;;5016531;28;20212;-62
2021/04/07 10:26:32;;;;;;;1.60;1.50;;;6.20;99.90;;;;;;5016895;28;20606;-64
2021/04/07 10:29:00;;;;;;;1.92;1.60;;;6.10;99.90;;;;;;5016823;28;20179;-62
2021/04/07 10:31:27;;;;;;;2.00;1.80;;;5.80;1.00;;;;;;5016960;28;20223;-66
2021/04/07 10:34:07;;;;;;;2.95;2.20;;;5.80;7.80;;;;;;5017850;28;20172;-64
2021/04/07 10:36:34;;;;;;;2.10;1.63;;;6.00;99.90;;;;;;5030732;28;20176;-60
2021/04/07 10:39:10;;;;;;;4.57;2.42;;;6.00;99.90;;;;;;5008052;28;20197;-59
2021/04/07 10:41:36;;;;;;;1.60;1.50;;;6.10;35.50;;;;;;5026915;28;20191;-60
2021/04/07 10:44:02;;;;;;;2.10;1.83;;;6.00;1.00;;;;;;5035799;28;20204;-60
2021/04/07 10:46:30;;;;;;;2.00;1.80;;;6.20;1.00;;;;;;5035106;28;20200;-60
2021/04/07 10:48:57;;;;;;;2.35;1.95;;;6.80;1.00;;;;;;5033733;28;20608;-60
2021/04/07 10:51:29;;;;;;;2.35;1.58;;;7.20;1.00;;;;;;5033728;28;20286;-65
2021/04/07 10:53:59;;;;;;;4.00;2.80;;;7.40;1.00;;;;;;5032238;28;20222;-65
2021/04/07 10:56:27;;;;;;;2.05;1.63;;;7.50;99.90;;;;;;4993986;28;20612;-65
2021/04/07 10:58:59;;;;;;;3.22;1.95;;;7.90;1.00;;;;;;4993899;28;20197;-65
2021/04/07 11:01:32;;;;;;;4.15;1.63;;;8.10;99.90;;;;;;4998465;28;20630;-65
2021/04/07 11:04:12;;;;;;;3.22;1.95;;;8.40;99.90;;;;;;5013894;28;20220;-65
2021/04/07 11:06:37;;;;;;;1.88;1.67;;;8.30;99.90;;;;;;5015166;28;20577;-65
2021/04/07 11:09:04;;;;;;;3.70;2.00;;;8.50;1.00;;;;;;5014558;28;20243;-66
2021/04/07 11:11:30;;;;;;;2.50;1.70;;;8.70;1.00;;;;;;5013795;28;20799;-63
2021/04/07 11:13:55;;;;;;;1.87;1.77;;;8.20;99.90;;;;;;5023881;28;20186;-60
2021/04/07 11:16:34;;;;;;;2.00;1.80;;;7.70;99.90;;;;;;5022811;28;20190;-63
2021/04/07 11:19:00;;;;;;;2.60;2.00;;;7.90;99.90;;;;;;5032281;28;20231;-63
2021/04/07 11:21:27;;;;;;;2.85;2.08;;;8.10;1.00;;;;;;5027707;28;20181;-66
2021/04/07 11:23:52;;;;;;;2.20;2.00;;;8.20;99.90;;;;;;5031673;28;20648;-66
2021/04/07 11:26:19;;;;;;;6.23;3.13;;;8.50;1.00;;;;;;5033692;28;20243;-68
2021/04/07 11:28:45;;;;;;;2.55;2.08;;;8.90;1.00;;;;;;5014072;28;20190;-68
2021/04/07 11:31:18;;;;;;;3.10;2.27;;;9.30;1.00;;;;;;5015081;28;20189;-68
2021/04/07 11:38:45;;;;;;;2.28;2.08;;;8.80;1.00;;;;;;5034446;28;20202;-63
2021/04/07 11:44:25;;;;;;;2.10;1.90;;;8.80;1.00;;;;;;5034347;28;20191;-63
2021/04/07 11:46:25;;;;;;;3.83;2.45;;;8.40;1.00;;;;;;5034312;28;20185;-63
2021/04/07 11:48:51;;;;;;;3.13;1.90;;;7.70;1.00;;;;;;5033485;28;20181;-64
2021/04/07 11:51:17;;;;;;;3.53;2.03;;;7.50;99.90;;;;;;5034150;28;20193;-64
2021/04/07 11:53:45;;;;;;;2.80;1.98;;;7.40;1.00;;;;;;5033976;28;20541;-64
2021/04/07 11:56:10;;;;;;;8.35;2.55;;;7.60;99.90;;;;;;5034530;28;20182;-65
2021/04/07 11:58:36;;;;;;;3.43;1.87;;;7.40;1.00;;;;;;5034716;28;20243;-61
2021/04/07 12:01:04;;;;;;;2.50;2.30;;;7.40;1.00;;;;;;5033729;28;20641;-63
2021/04/07 12:03:31;;;;;;;1.95;1.70;;;7.40;18.30;;;;;;5014798;28;20522;-60
2021/04/07 12:05:56;;;;;;;2.60;2.20;;;7.10;99.90;;;;;;5014333;28;20636;-59
2021/04/07 12:08:25;;;;;;;2.33;1.73;;;7.10;99.90;;;;;;5014236;28;20209;-60
2021/04/07 12:10:50;;;;;;;2.35;1.67;;;7.20;99.90;;;;;;5014170;28;20178;-59
2021/04/07 12:13:17;;;;;;;2.07;1.87;;;7.30;99.90;;;;;;5012897;28;20209;-60
2021/04/07 12:15:42;;;;;;;1.30;1.15;;;7.20;99.90;;;;;;5023748;28;20488;-60
2021/04/07 12:18:08;;;;;;;1.90;1.50;;;6.60;1.00;;;;;;5018876;28;20203;-60
2021/04/07 12:20:34;;;;;;;2.47;1.20;;;6.50;1.00;;;;;;5033751;28;20181;-63
2021/04/07 12:23:01;;;;;;;2.65;1.50;;;6.50;1.00;;;;;;5022955;28;20185;-63
2021/04/07 12:25:27;;;;;;;2.35;1.70;;;6.80;1.00;;;;;;5013806;28;20270;-60
2021/04/07 12:27:53;;;;;;;3.92;2.65;;;7.20;1.00;;;;;;5013831;28;20182;-62
2021/04/07 12:30:20;;;;;;;2.53;1.27;;;7.50;1.00;;;;;;5013704;28;20189;-61
2021/04/07 12:32:46;;;;;;;1.90;1.50;;;7.30;1.00;;;;;;5032116;28;20481;-60
2021/04/07 12:35:25;;;;;;;1.63;1.00;;;7.40;1.00;;;;;;5033546;28;20195;-61
2021/04/07 12:37:52;;;;;;;5.38;1.50;;;7.60;1.00;;;;;;5033734;28;20448;-61
2021/04/07 12:40:18;;;;;;;1.75;1.00;;;7.80;1.00;;;;;;5032656;28;20609;-60
2021/04/07 12:42:43;;;;;;;3.20;1.40;;;8.10;1.00;;;;;;5033178;28;20198;-63
2021/04/07 12:45:09;;;;;;;1.37;1.00;;;8.10;1.00;;;;;;5032037;28;21083;-63
2021/04/07 12:47:35;;;;;;;3.50;1.90;;;8.00;1.00;;;;;;5032132;28;20193;-64
2021/04/07 12:50:01;;;;;;;2.80;1.13;;;7.80;1.00;;;;;;5013401;28;20443;-61
2021/04/07 12:52:27;;;;;;;6.88;2.13;;;8.00;1.00;;;;;;5013558;28;20213;-64
2021/04/07 12:54:52;;;;;;;3.90;2.20;;;8.10;99.90;;;;;;5013162;28;20194;-60
2021/04/07 12:57:18;;;;;;;7.33;1.63;;;7.80;99.90;;;;;;5013457;28;20193;-63
2021/04/07 12:59:43;;;;;;;11.33;3.17;;;7.40;98.30;;;;;;5013198;28;20169;-62
2021/04/07 13:02:09;;;;;;;9.37;1.43;;;7.50;99.90;;;;;;5013232;28;20189;-64
2021/04/07 13:04:35;;;;;;;4.97;1.47;;;7.60;99.90;;;;;;5013180;28;20177;-64
2021/04/07 13:07:00;;;;;;;5.00;1.60;;;7.80;99.90;;;;;;5016381;28;20456;-64
2021/04/07 13:09:26;;;;;;;7.63;1.70;;;7.70;99.90;;;;;;5017754;28;20574;-61
2021/04/07 13:11:51;;;;;;;4.07;3.00;;;7.80;90.70;;;;;;5017300;28;20654;-61